sensor_id;sensor_type;location;lat;lon;timestamp;pressure;altitude;pressure_sealevel;temperature;humidity
13124;BME280;6627;50.920;12.050;2023-08-24T00:02:18;99446.41;;;28.06;44.43
13124;BME280;6627;50.920;12.050;2023-08-24T00:04:47;99460.63;;;28.51;43.68
13124;BME280;6627;50.920;12.050;2023-08-24T00:07:16;99467.88;;;28.23;44.05
13124;BME280;6627;50.920;12.050;2023-08-24T00:09:44;99446.00;;;28.22;44.11
13124;BME280;6627;50.920;12.050;2023-08-24T00:12:11;99482.31;;;29.06;42.67
13124;BME280;6627;50.920;12.050;2023-08-24T00:14:38;99521.19;;;29.34;42.57
13124;BME280;6627;50.920;12.050;2023-08-24T00:17:05;99411.88;;;27.85;44.12
13124;BME280;6627;50.920;12.050;2023-08-24T00:19:33;99450.84;;;27.85;44.75
13124;BME280;6627;50.920;12.050;2023-08-24T00:22:00;99480.28;;;27.83;45.26
13124;BME280;6627;50.920;12.050;2023-08-24T00:24:28;99432.13;;;28.04;44.34
13124;BME280;6627;50.920;12.050;2023-08-24T00:26:56;99487.00;;;28.21;44.65
13124;BME280;6627;50.920;12.050;2023-08-24T00:29:23;99414.66;;;27.75;44.65
13124;BME280;6627;50.920;12.050;2023-08-24T00:31:51;99469.16;;;27.94;44.96
13124;BME280;6627;50.920;12.050;2023-08-24T00:34:18;99464.28;;;28.19;44.31
13124;BME280;6627;50.920;12.050;2023-08-24T00:36:45;99420.59;;;27.95;44.72
13124;BME280;6627;50.920;12.050;2023-08-24T00:39:13;99482.97;;;28.40;43.94
13124;BME280;6627;50.920;12.050;2023-08-24T00:41:43;99407.09;;;27.82;44.34
13124;BME280;6627;50.920;12.050;2023-08-24T00:44:11;99481.78;;;28.37;43.76
13124;BME280;6627;50.920;12.050;2023-08-24T00:46:39;99512.25;;;28.91;43.28
13124;BME280;6627;50.920;12.050;2023-08-24T00:49:07;99486.19;;;29.23;42.21
13124;BME280;6627;50.920;12.050;2023-08-24T00:51:34;99437.66;;;29.09;42.27
13124;BME280;6627;50.920;12.050;2023-08-24T00:54:02;99494.53;;;29.82;41.17
13124;BME280;6627;50.920;12.050;2023-08-24T00:56:30;99469.25;;;29.96;40.90
13124;BME280;6627;50.920;12.050;2023-08-24T00:58:59;99376.69;;;28.31;42.72
13124;BME280;6627;50.920;12.050;2023-08-24T01:01:26;99434.41;;;28.30;43.27
13124;BME280;6627;50.920;12.050;2023-08-24T01:03:53;99414.25;;;27.69;44.59
13124;BME280;6627;50.920;12.050;2023-08-24T01:06:21;99460.81;;;27.72;45.15
13124;BME280;6627;50.920;12.050;2023-08-24T01:08:48;99430.16;;;27.29;45.60
13124;BME280;6627;50.920;12.050;2023-08-24T01:11:26;99412.59;;;26.86;46.58
13124;BME280;6627;50.920;12.050;2023-08-24T01:14:08;99504.13;;;27.84;45.32
13124;BME280;6627;50.920;12.050;2023-08-24T01:16:43;99452.03;;;27.70;44.85
13124;BME280;6627;50.920;12.050;2023-08-24T01:19:29;99465.16;;;27.87;44.85
13124;BME280;6627;50.920;12.050;2023-08-24T01:22:07;99482.63;;;28.06;44.05
13124;BME280;6627;50.920;12.050;2023-08-24T01:24:41;99465.19;;;27.77;44.68
13124;BME280;6627;50.920;12.050;2023-08-24T01:27:14;99432.56;;;27.27;45.51
13124;BME280;6627;50.920;12.050;2023-08-24T01:29:42;99479.44;;;28.11;44.46
13124;BME280;6627;50.920;12.050;2023-08-24T01:32:10;99445.25;;;28.07;44.08
13124;BME280;6627;50.920;12.050;2023-08-24T01:34:38;99484.06;;;28.64;42.93
13124;BME280;6627;50.920;12.050;2023-08-24T01:37:06;99488.19;;;29.22;41.91
13124;BME280;6627;50.920;12.050;2023-08-24T01:39:43;99393.09;;;28.11;43.26
13124;BME280;6627;50.920;12.050;2023-08-24T01:42:20;99469.69;;;28.76;42.68
13124;BME280;6627;50.920;12.050;2023-08-24T01:44:55;99403.84;;;28.12;43.28
13124;BME280;6627;50.920;12.050;2023-08-24T01:47:25;99414.22;;;27.98;43.60
13124;BME280;6627;50.920;12.050;2023-08-24T01:49:55;99426.91;;;28.20;43.42
13124;BME280;6627;50.920;12.050;2023-08-24T01:52:23;99420.59;;;27.87;43.57
13124;BME280;6627;50.920;12.050;2023-08-24T01:54:51;99403.53;;;27.64;44.24
13124;BME280;6627;50.920;12.050;2023-08-24T01:57:20;99413.00;;;28.13;43.16
13124;BME280;6627;50.920;12.050;2023-08-24T01:59:47;99451.84;;;28.59;42.64
13124;BME280;6627;50.920;12.050;2023-08-24T02:02:14;99437.09;;;28.66;42.37
13124;BME280;6627;50.920;12.050;2023-08-24T02:04:41;99411.66;;;28.57;42.23
13124;BME280;6627;50.920;12.050;2023-08-24T02:07:09;99358.97;;;27.78;43.18
13124;BME280;6627;50.920;12.050;2023-08-24T02:09:36;99383.63;;;27.83;43.54
13124;BME280;6627;50.920;12.050;2023-08-24T02:12:04;99380.88;;;27.76;43.69
13124;BME280;6627;50.920;12.050;2023-08-24T02:14:33;99371.38;;;27.09;45.12
13124;BME280;6627;50.920;12.050;2023-08-24T02:17:00;99377.31;;;27.22;44.90
13124;BME280;6627;50.920;12.050;2023-08-24T02:19:27;99397.56;;;27.30;44.94
13124;BME280;6627;50.920;12.050;2023-08-24T02:21:55;99412.56;;;28.18;43.59
13124;BME280;6627;50.920;12.050;2023-08-24T02:24:22;99353.38;;;27.71;43.48
13124;BME280;6627;50.920;12.050;2023-08-24T02:26:49;99355.41;;;27.74;43.41
13124;BME280;6627;50.920;12.050;2023-08-24T02:29:17;99399.91;;;27.96;43.74
13124;BME280;6627;50.920;12.050;2023-08-24T02:31:45;99466.81;;;29.57;40.94
13124;BME280;6627;50.920;12.050;2023-08-24T02:34:13;99405.50;;;29.87;39.81
13124;BME280;6627;50.920;12.050;2023-08-24T02:36:40;99424.34;;;30.52;38.54
13124;BME280;6627;50.920;12.050;2023-08-24T02:39:07;99360.91;;;30.14;38.53
13124;BME280;6627;50.920;12.050;2023-08-24T02:41:35;99289.69;;;29.20;39.79
13124;BME280;6627;50.920;12.050;2023-08-24T02:44:03;99299.16;;;28.81;40.69
13124;BME280;6627;50.920;12.050;2023-08-24T02:46:30;99254.13;;;27.25;43.17
13124;BME280;6627;50.920;12.050;2023-08-24T02:49:17;99300.63;;;27.32;43.62
13124;BME280;6627;50.920;12.050;2023-08-24T02:52:02;99351.44;;;27.57;43.59
13124;BME280;6627;50.920;12.050;2023-08-24T02:54:29;99397.47;;;28.12;42.78
13124;BME280;6627;50.920;12.050;2023-08-24T02:56:57;99359.38;;;27.80;43.16
13124;BME280;6627;50.920;12.050;2023-08-24T02:59:24;99339.53;;;27.35;43.82
13124;BME280;6627;50.920;12.050;2023-08-24T03:01:52;99341.13;;;27.44;43.35
13124;BME280;6627;50.920;12.050;2023-08-24T03:04:20;99380.09;;;27.51;43.98
13124;BME280;6627;50.920;12.050;2023-08-24T03:06:48;99328.84;;;27.23;43.91
13124;BME280;6627;50.920;12.050;2023-08-24T03:09:16;99359.81;;;27.18;44.62
13124;BME280;6627;50.920;12.050;2023-08-24T03:11:43;99374.94;;;27.46;44.00
13124;BME280;6627;50.920;12.050;2023-08-24T03:14:11;99457.44;;;29.29;41.14
13124;BME280;6627;50.920;12.050;2023-08-24T03:16:39;99365.13;;;28.47;41.96
13124;BME280;6627;50.920;12.050;2023-08-24T03:19:07;99401.97;;;28.79;41.46
13124;BME280;6627;50.920;12.050;2023-08-24T03:21:36;99424.94;;;29.05;41.41
13124;BME280;6627;50.920;12.050;2023-08-24T03:24:04;99324.94;;;28.40;41.37
13124;BME280;6627;50.920;12.050;2023-08-24T03:26:32;99339.75;;;28.89;40.59
13124;BME280;6627;50.920;12.050;2023-08-24T03:28:59;99422.03;;;29.71;39.70
13124;BME280;6627;50.920;12.050;2023-08-24T03:31:27;99353.50;;;29.18;40.11
13124;BME280;6627;50.920;12.050;2023-08-24T03:33:55;99380.16;;;29.71;39.32
13124;BME280;6627;50.920;12.050;2023-08-24T03:36:23;99297.31;;;29.16;39.34
13124;BME280;6627;50.920;12.050;2023-08-24T03:38:52;99283.47;;;28.46;40.79
13124;BME280;6627;50.920;12.050;2023-08-24T03:41:19;99372.81;;;29.39;40.03
13124;BME280;6627;50.920;12.050;2023-08-24T03:43:46;99315.56;;;29.24;39.76
13124;BME280;6627;50.920;12.050;2023-08-24T03:46:14;99303.66;;;29.20;39.60
13124;BME280;6627;50.920;12.050;2023-08-24T03:48:41;99354.75;;;29.55;39.68
13124;BME280;6627;50.920;12.050;2023-08-24T03:51:08;99311.69;;;29.56;39.15
13124;BME280;6627;50.920;12.050;2023-08-24T03:53:36;99267.22;;;28.89;39.89
13124;BME280;6627;50.920;12.050;2023-08-24T03:56:05;99268.25;;;28.65;40.28
13124;BME280;6627;50.920;12.050;2023-08-24T03:58:33;99288.63;;;29.07;39.77
13124;BME280;6627;50.920;12.050;2023-08-24T04:01:00;99318.34;;;29.24;39.75
13124;BME280;6627;50.920;12.050;2023-08-24T04:03:28;99309.38;;;29.44;39.29
13124;BME280;6627;50.920;12.050;2023-08-24T04:05:55;99338.09;;;29.85;38.30
13124;BME280;6627;50.920;12.050;2023-08-24T04:08:23;99322.94;;;29.83;38.44
13124;BME280;6627;50.920;12.050;2023-08-24T04:10:50;99232.13;;;29.37;38.77
13124;BME280;6627;50.920;12.050;2023-08-24T04:13:18;99260.66;;;28.65;40.18
13124;BME280;6627;50.920;12.050;2023-08-24T04:15:46;99186.13;;;28.21;40.32
13124;BME280;6627;50.920;12.050;2023-08-24T04:18:13;99280.50;;;28.12;41.12
13124;BME280;6627;50.920;12.050;2023-08-24T04:20:40;99311.94;;;28.09;41.59
13124;BME280;6627;50.920;12.050;2023-08-24T04:23:07;99271.06;;;27.84;41.74
13124;BME280;6627;50.920;12.050;2023-08-24T04:25:39;99267.63;;;27.30;43.01
13124;BME280;6627;50.920;12.050;2023-08-24T04:28:07;99212.06;;;26.84;43.51
13124;BME280;6627;50.920;12.050;2023-08-24T04:30:35;99355.22;;;28.28;41.66
13124;BME280;6627;50.920;12.050;2023-08-24T04:33:03;99358.41;;;28.26;41.68
13124;BME280;6627;50.920;12.050;2023-08-24T04:35:34;99361.19;;;29.00;40.15
13124;BME280;6627;50.920;12.050;2023-08-24T04:38:02;99353.19;;;29.09;40.10
13124;BME280;6627;50.920;12.050;2023-08-24T04:40:38;99289.84;;;29.02;39.73
13124;BME280;6627;50.920;12.050;2023-08-24T04:43:10;99321.19;;;28.65;40.58
13124;BME280;6627;50.920;12.050;2023-08-24T04:45:39;99326.19;;;28.91;40.19
13124;BME280;6627;50.920;12.050;2023-08-24T04:48:06;99363.25;;;29.40;39.50
13124;BME280;6627;50.920;12.050;2023-08-24T04:50:33;99349.78;;;29.32;39.43
13124;BME280;6627;50.920;12.050;2023-08-24T04:53:00;99335.34;;;29.40;39.35
13124;BME280;6627;50.920;12.050;2023-08-24T04:55:28;99350.00;;;29.07;40.30
13124;BME280;6627;50.920;12.050;2023-08-24T04:57:55;99305.84;;;29.39;39.15
13124;BME280;6627;50.920;12.050;2023-08-24T05:00:23;99301.75;;;28.51;40.93
13124;BME280;6627;50.920;12.050;2023-08-24T05:02:51;99349.78;;;29.32;39.68
13124;BME280;6627;50.920;12.050;2023-08-24T05:05:20;99295.59;;;28.77;40.42
13124;BME280;6627;50.920;12.050;2023-08-24T05:07:47;99327.22;;;28.60;41.33
13124;BME280;6627;50.920;12.050;2023-08-24T05:10:14;99365.13;;;29.09;40.73
13124;BME280;6627;50.920;12.050;2023-08-24T05:12:42;99294.00;;;28.13;42.03
13124;BME280;6627;50.920;12.050;2023-08-24T05:15:10;99362.63;;;28.63;41.82
13124;BME280;6627;50.920;12.050;2023-08-24T05:17:37;99424.94;;;29.57;40.55
13124;BME280;6627;50.920;12.050;2023-08-24T05:20:07;99356.16;;;29.32;40.24
13124;BME280;6627;50.920;12.050;2023-08-24T05:22:36;99294.88;;;28.73;40.90
13124;BME280;6627;50.920;12.050;2023-08-24T05:25:05;99343.00;;;28.77;41.28
13124;BME280;6627;50.920;12.050;2023-08-24T05:27:33;99313.78;;;28.40;41.64
13124;BME280;6627;50.920;12.050;2023-08-24T05:30:00;99381.03;;;29.12;40.82
13124;BME280;6627;50.920;12.050;2023-08-24T05:32:28;99302.34;;;28.83;40.77
13124;BME280;6627;50.920;12.050;2023-08-24T05:34:55;99372.94;;;29.25;40.58
13124;BME280;6627;50.920;12.050;2023-08-24T05:37:24;99310.88;;;28.62;41.31
13124;BME280;6627;50.920;12.050;2023-08-24T05:39:51;99445.94;;;29.72;40.39
13124;BME280;6627;50.920;12.050;2023-08-24T05:42:18;99350.75;;;29.59;39.57
13124;BME280;6627;50.920;12.050;2023-08-24T05:44:46;99358.00;;;29.05;41.07
13124;BME280;6627;50.920;12.050;2023-08-24T05:47:13;99450.50;;;29.97;40.19
13124;BME280;6627;50.920;12.050;2023-08-24T05:49:41;99463.91;;;30.16;39.99
13124;BME280;6627;50.920;12.050;2023-08-24T05:52:08;99414.84;;;29.70;40.47
13124;BME280;6627;50.920;12.050;2023-08-24T05:54:37;99385.47;;;29.51;40.36
13124;BME280;6627;50.920;12.050;2023-08-24T05:57:05;99364.72;;;29.52;40.21
13124;BME280;6627;50.920;12.050;2023-08-24T05:59:33;99444.25;;;30.23;39.67
13124;BME280;6627;50.920;12.050;2023-08-24T06:02:00;99388.97;;;30.04;39.47
13124;BME280;6627;50.920;12.050;2023-08-24T06:04:28;99347.44;;;29.27;40.64
13124;BME280;6627;50.920;12.050;2023-08-24T06:06:56;99388.38;;;29.40;41.02
13124;BME280;6627;50.920;12.050;2023-08-24T06:09:23;99405.53;;;29.39;41.42
13124;BME280;6627;50.920;12.050;2023-08-24T06:11:51;99452.47;;;30.00;40.32
13124;BME280;6627;50.920;12.050;2023-08-24T06:14:19;99485.19;;;30.40;40.26
13124;BME280;6627;50.920;12.050;2023-08-24T06:16:46;99429.00;;;30.62;38.81
13124;BME280;6627;50.920;12.050;2023-08-24T06:19:14;99442.41;;;30.78;38.90
13124;BME280;6627;50.920;12.050;2023-08-24T06:21:41;99366.84;;;30.20;39.56
13124;BME280;6627;50.920;12.050;2023-08-24T06:24:09;99447.31;;;31.24;37.96
13124;BME280;6627;50.920;12.050;2023-08-24T06:26:36;99334.50;;;30.19;39.10
13124;BME280;6627;50.920;12.050;2023-08-24T06:29:05;99440.22;;;31.16;38.50
13124;BME280;6627;50.920;12.050;2023-08-24T06:31:32;99308.66;;;29.77;39.93
13124;BME280;6627;50.920;12.050;2023-08-24T06:34:00;99310.53;;;30.49;38.37
13124;BME280;6627;50.920;12.050;2023-08-24T06:36:27;99398.03;;;31.03;38.15
13124;BME280;6627;50.920;12.050;2023-08-24T06:38:55;99333.84;;;30.08;39.45
13124;BME280;6627;50.920;12.050;2023-08-24T06:41:24;99399.59;;;31.08;37.99
13124;BME280;6627;50.920;12.050;2023-08-24T06:43:52;99453.22;;;31.57;38.26
13124;BME280;6627;50.920;12.050;2023-08-24T06:46:22;99472.34;;;31.85;37.43
13124;BME280;6627;50.920;12.050;2023-08-24T06:48:50;99469.41;;;32.16;36.68
13124;BME280;6627;50.920;12.050;2023-08-24T06:51:17;99343.88;;;31.40;37.37
13124;BME280;6627;50.920;12.050;2023-08-24T06:53:45;99394.22;;;31.44;37.47
13124;BME280;6627;50.920;12.050;2023-08-24T06:56:15;99337.69;;;31.29;37.21
13124;BME280;6627;50.920;12.050;2023-08-24T06:58:43;99431.28;;;31.99;37.20
13124;BME280;6627;50.920;12.050;2023-08-24T07:01:11;99471.13;;;32.30;36.99
13124;BME280;6627;50.920;12.050;2023-08-24T07:03:40;99378.69;;;31.63;37.07
13124;BME280;6627;50.920;12.050;2023-08-24T07:06:07;99455.50;;;32.09;36.93
13124;BME280;6627;50.920;12.050;2023-08-24T07:08:38;99389.03;;;31.66;37.16
13124;BME280;6627;50.920;12.050;2023-08-24T07:11:06;99400.22;;;32.09;36.42
13124;BME280;6627;50.920;12.050;2023-08-24T07:13:34;99479.25;;;33.04;35.26
13124;BME280;6627;50.920;12.050;2023-08-24T07:16:02;99396.50;;;32.16;37.04
13124;BME280;6627;50.920;12.050;2023-08-24T07:18:31;99432.75;;;32.47;36.73
13124;BME280;6627;50.920;12.050;2023-08-24T07:21:00;99501.94;;;32.73;37.07
13124;BME280;6627;50.920;12.050;2023-08-24T07:23:28;99431.38;;;32.35;37.22
13124;BME280;6627;50.920;12.050;2023-08-24T07:25:55;99498.41;;;33.42;35.79
13124;BME280;6627;50.920;12.050;2023-08-24T07:28:23;99274.13;;;31.50;36.94
13124;BME280;6627;50.920;12.050;2023-08-24T07:30:51;99414.56;;;32.15;37.78
13124;BME280;6627;50.920;12.050;2023-08-24T07:33:21;99409.22;;;32.40;36.81
13124;BME280;6627;50.920;12.050;2023-08-24T07:35:49;99432.66;;;32.70;36.51
13124;BME280;6627;50.920;12.050;2023-08-24T07:38:19;99491.38;;;33.33;36.22
13124;BME280;6627;50.920;12.050;2023-08-24T07:40:46;99346.19;;;32.29;36.74
13124;BME280;6627;50.920;12.050;2023-08-24T07:43:13;99403.75;;;32.33;37.15
13124;BME280;6627;50.920;12.050;2023-08-24T07:45:41;99444.72;;;33.72;34.72
13124;BME280;6627;50.920;12.050;2023-08-24T07:48:08;99419.00;;;33.08;35.94
13124;BME280;6627;50.920;12.050;2023-08-24T07:50:36;99532.44;;;34.12;35.81
13124;BME280;6627;50.920;12.050;2023-08-24T07:53:03;99445.94;;;33.87;35.13
13124;BME280;6627;50.920;12.050;2023-08-24T07:55:32;99434.53;;;33.62;35.32
13124;BME280;6627;50.920;12.050;2023-08-24T07:58:00;99360.44;;;33.39;35.08
13124;BME280;6627;50.920;12.050;2023-08-24T08:00:27;99452.09;;;33.66;35.58
13124;BME280;6627;50.920;12.050;2023-08-24T08:03:00;99383.44;;;33.51;35.37
13124;BME280;6627;50.920;12.050;2023-08-24T08:05:27;99517.91;;;34.59;34.50
13124;BME280;6627;50.920;12.050;2023-08-24T08:07:55;99417.53;;;33.98;34.81
13124;BME280;6627;50.920;12.050;2023-08-24T08:10:22;99491.50;;;34.82;33.92
13124;BME280;6627;50.920;12.050;2023-08-24T08:12:51;99544.06;;;36.04;32.88
13124;BME280;6627;50.920;12.050;2023-08-24T08:15:19;99437.03;;;35.27;33.45
13124;BME280;6627;50.920;12.050;2023-08-24T08:17:46;99379.72;;;35.08;33.32
13124;BME280;6627;50.920;12.050;2023-08-24T08:20:15;99362.03;;;35.08;33.12
13124;BME280;6627;50.920;12.050;2023-08-24T08:22:42;99536.09;;;36.24;32.82
13124;BME280;6627;50.920;12.050;2023-08-24T08:25:10;99365.25;;;35.19;32.86
13124;BME280;6627;50.920;12.050;2023-08-24T08:27:38;99544.66;;;37.21;30.90
13124;BME280;6627;50.920;12.050;2023-08-24T08:30:08;99432.81;;;36.71;31.21
13124;BME280;6627;50.920;12.050;2023-08-24T08:32:36;99430.84;;;36.36;31.92
13124;BME280;6627;50.920;12.050;2023-08-24T08:35:05;99337.97;;;35.98;31.65
13124;BME280;6627;50.920;12.050;2023-08-24T08:37:32;99470.53;;;37.17;31.41
13124;BME280;6627;50.920;12.050;2023-08-24T08:40:00;99228.81;;;34.85;33.24
13124;BME280;6627;50.920;12.050;2023-08-24T08:42:30;99394.16;;;36.36;31.65
13124;BME280;6627;50.920;12.050;2023-08-24T08:44:58;99418.88;;;37.07;31.18
13124;BME280;6627;50.920;12.050;2023-08-24T08:47:31;99498.84;;;37.35;32.10
13124;BME280;6627;50.920;12.050;2023-08-24T08:49:59;99505.38;;;38.31;30.58
13124;BME280;6627;50.920;12.050;2023-08-24T08:52:29;99317.38;;;37.41;30.13
13124;BME280;6627;50.920;12.050;2023-08-24T08:54:57;99276.72;;;36.70;30.84
13124;BME280;6627;50.920;12.050;2023-08-24T08:57:25;99395.59;;;37.44;31.13
13124;BME280;6627;50.920;12.050;2023-08-24T08:59:53;99394.03;;;37.70;30.10
13124;BME280;6627;50.920;12.050;2023-08-24T09:02:24;99312.34;;;37.35;29.90
13124;BME280;6627;50.920;12.050;2023-08-24T09:04:52;99337.59;;;37.11;30.29
13124;BME280;6627;50.920;12.050;2023-08-24T09:07:20;99374.22;;;38.16;29.42
13124;BME280;6627;50.920;12.050;2023-08-24T09:09:47;99203.53;;;37.31;29.28
13124;BME280;6627;50.920;12.050;2023-08-24T09:12:16;99316.44;;;37.90;29.72
13124;BME280;6627;50.920;12.050;2023-08-24T09:14:43;99181.66;;;36.49;30.79
13124;BME280;6627;50.920;12.050;2023-08-24T09:17:20;99263.91;;;36.87;30.54
13124;BME280;6627;50.920;12.050;2023-08-24T09:19:53;99203.22;;;37.56;28.60
13124;BME280;6627;50.920;12.050;2023-08-24T09:22:25;99164.63;;;36.98;29.13
13124;BME280;6627;50.920;12.050;2023-08-24T09:24:52;99129.81;;;37.01;28.90
13124;BME280;6627;50.920;12.050;2023-08-24T09:27:21;99051.78;;;36.21;29.25
13124;BME280;6627;50.920;12.050;2023-08-24T09:29:49;99261.44;;;37.81;28.79
13124;BME280;6627;50.920;12.050;2023-08-24T09:32:22;99140.94;;;37.05;29.14
13124;BME280;6627;50.920;12.050;2023-08-24T09:34:51;99194.81;;;37.90;27.96
13124;BME280;6627;50.920;12.050;2023-08-24T09:37:19;99135.84;;;37.36;28.28
13124;BME280;6627;50.920;12.050;2023-08-24T09:39:47;99158.97;;;37.17;28.59
13124;BME280;6627;50.920;12.050;2023-08-24T09:42:14;99098.25;;;37.12;28.49
13124;BME280;6627;50.920;12.050;2023-08-24T09:44:43;99076.28;;;37.07;28.44
13124;BME280;6627;50.920;12.050;2023-08-24T09:47:12;99079.75;;;36.56;29.10
13124;BME280;6627;50.920;12.050;2023-08-24T09:49:40;99083.50;;;36.90;28.70
13124;BME280;6627;50.920;12.050;2023-08-24T09:52:09;99045.84;;;37.11;28.02
13124;BME280;6627;50.920;12.050;2023-08-24T09:54:38;99130.16;;;37.64;27.65
13124;BME280;6627;50.920;12.050;2023-08-24T09:57:07;99190.41;;;37.89;28.54
13124;BME280;6627;50.920;12.050;2023-08-24T09:59:43;99208.06;;;37.65;29.19
13124;BME280;6627;50.920;12.050;2023-08-24T10:02:20;99230.03;;;37.70;29.92
13124;BME280;6627;50.920;12.050;2023-08-24T10:04:52;99084.78;;;36.79;29.92
13124;BME280;6627;50.920;12.050;2023-08-24T10:07:24;99189.41;;;37.12;30.18
13124;BME280;6627;50.920;12.050;2023-08-24T10:09:58;99084.28;;;36.90;29.03
13124;BME280;6627;50.920;12.050;2023-08-24T10:12:38;99050.56;;;36.68;29.23
13124;BME280;6627;50.920;12.050;2023-08-24T10:15:09;99274.06;;;38.32;29.78
13124;BME280;6627;50.920;12.050;2023-08-24T10:17:39;99214.63;;;37.90;30.88
13124;BME280;6627;50.920;12.050;2023-08-24T10:20:09;99157.53;;;37.49;30.81
13124;BME280;6627;50.920;12.050;2023-08-24T10:22:38;99150.25;;;37.66;29.71
13124;BME280;6627;50.920;12.050;2023-08-24T10:25:08;99013.13;;;37.28;29.65
13124;BME280;6627;50.920;12.050;2023-08-24T10:27:37;99079.19;;;37.82;28.91
13124;BME280;6627;50.920;12.050;2023-08-24T10:30:11;99137.66;;;37.85;28.78
13124;BME280;6627;50.920;12.050;2023-08-24T10:32:40;99118.66;;;37.86;28.84
13124;BME280;6627;50.920;12.050;2023-08-24T10:35:09;99224.06;;;38.62;29.28
13124;BME280;6627;50.920;12.050;2023-08-24T10:37:37;99044.25;;;38.43;27.15
13124;BME280;6627;50.920;12.050;2023-08-24T10:40:06;98809.59;;;35.96;28.58
13124;BME280;6627;50.920;12.050;2023-08-24T10:42:44;99055.22;;;38.50;27.09
13124;BME280;6627;50.920;12.050;2023-08-24T10:45:13;99000.25;;;38.42;26.32
13124;BME280;6627;50.920;12.050;2023-08-24T10:47:45;99112.16;;;38.91;26.88
13124;BME280;6627;50.920;12.050;2023-08-24T10:50:14;98940.00;;;37.21;28.56
13124;BME280;6627;50.920;12.050;2023-08-24T10:52:44;98880.81;;;36.94;28.10
13124;BME280;6627;50.920;12.050;2023-08-24T10:55:25;99087.84;;;37.46;29.90
13124;BME280;6627;50.920;12.050;2023-08-24T10:57:57;99119.94;;;38.09;29.22
13124;BME280;6627;50.920;12.050;2023-08-24T11:00:27;99121.13;;;37.32;30.67
13124;BME280;6627;50.920;12.050;2023-08-24T11:02:56;99140.19;;;37.74;29.95
13124;BME280;6627;50.920;12.050;2023-08-24T11:05:27;99229.41;;;37.66;31.20
13124;BME280;6627;50.920;12.050;2023-08-24T11:08:00;99232.19;;;38.69;29.54
13124;BME280;6627;50.920;12.050;2023-08-24T11:10:34;99223.19;;;38.47;30.30
13124;BME280;6627;50.920;12.050;2023-08-24T11:13:14;99179.22;;;37.43;32.03
13124;BME280;6627;50.920;12.050;2023-08-24T11:15:44;99116.38;;;37.99;29.58
13124;BME280;6627;50.920;12.050;2023-08-24T11:18:30;99024.19;;;37.83;28.42
13124;BME280;6627;50.920;12.050;2023-08-24T11:21:02;98964.69;;;38.02;27.95
13124;BME280;6627;50.920;12.050;2023-08-24T11:23:31;99208.91;;;40.11;27.23
13124;BME280;6627;50.920;12.050;2023-08-24T11:26:00;98937.94;;;38.27;27.44
13124;BME280;6627;50.920;12.050;2023-08-24T11:28:29;98934.63;;;37.32;29.14
13124;BME280;6627;50.920;12.050;2023-08-24T11:30:58;98804.34;;;36.31;28.95
13124;BME280;6627;50.920;12.050;2023-08-24T11:33:30;98971.50;;;36.86;29.44
13124;BME280;6627;50.920;12.050;2023-08-24T11:35:58;99167.44;;;38.62;28.48
13124;BME280;6627;50.920;12.050;2023-08-24T11:38:37;98921.25;;;37.66;27.48
13124;BME280;6627;50.920;12.050;2023-08-24T11:41:12;98979.19;;;37.37;28.42
13124;BME280;6627;50.920;12.050;2023-08-24T11:43:40;99119.13;;;39.19;26.88
13124;BME280;6627;50.920;12.050;2023-08-24T11:46:08;99127.97;;;40.36;25.88
13124;BME280;6627;50.920;12.050;2023-08-24T11:48:35;98972.75;;;38.57;27.37
13124;BME280;6627;50.920;12.050;2023-08-24T11:51:08;98834.53;;;37.48;28.08
13124;BME280;6627;50.920;12.050;2023-08-24T11:53:41;98886.66;;;37.71;27.71
13124;BME280;6627;50.920;12.050;2023-08-24T11:56:09;98864.78;;;37.57;27.44
13124;BME280;6627;50.920;12.050;2023-08-24T11:58:38;98960.69;;;38.32;27.21
13124;BME280;6627;50.920;12.050;2023-08-24T12:01:08;98971.34;;;38.38;27.36
13124;BME280;6627;50.920;12.050;2023-08-24T12:03:36;98835.00;;;37.23;27.78
13124;BME280;6627;50.920;12.050;2023-08-24T12:06:11;98969.19;;;38.32;27.38
13124;BME280;6627;50.920;12.050;2023-08-24T12:08:40;99006.91;;;38.68;27.30
13124;BME280;6627;50.920;12.050;2023-08-24T12:11:17;98889.50;;;38.25;26.80
13124;BME280;6627;50.920;12.050;2023-08-24T12:13:48;98943.69;;;37.94;27.97
13124;BME280;6627;50.920;12.050;2023-08-24T12:16:16;98912.22;;;38.01;27.52
13124;BME280;6627;50.920;12.050;2023-08-24T12:18:50;98999.72;;;38.04;28.28
13124;BME280;6627;50.920;12.050;2023-08-24T12:21:18;99037.03;;;39.40;26.41
13124;BME280;6627;50.920;12.050;2023-08-24T12:23:58;99056.16;;;40.30;25.40
13124;BME280;6627;50.920;12.050;2023-08-24T12:26:26;98834.69;;;38.22;26.46
13124;BME280;6627;50.920;12.050;2023-08-24T12:29:00;98954.88;;;39.10;25.98
13124;BME280;6627;50.920;12.050;2023-08-24T12:31:29;98844.63;;;38.77;25.27
13124;BME280;6627;50.920;12.050;2023-08-24T12:34:00;98774.91;;;38.79;24.91
13124;BME280;6627;50.920;12.050;2023-08-24T12:36:32;98826.47;;;39.39;24.20
13124;BME280;6627;50.920;12.050;2023-08-24T12:39:12;98709.06;;;39.25;23.29
13124;BME280;6627;50.920;12.050;2023-08-24T12:41:39;98597.75;;;38.38;23.89
13124;BME280;6627;50.920;12.050;2023-08-24T12:44:07;98742.50;;;39.01;24.23
13124;BME280;6627;50.920;12.050;2023-08-24T12:46:38;98813.78;;;39.75;24.06
13124;BME280;6627;50.920;12.050;2023-08-24T12:49:06;98583.59;;;38.38;24.40
13124;BME280;6627;50.920;12.050;2023-08-24T12:51:33;98764.56;;;39.78;23.57
13124;BME280;6627;50.920;12.050;2023-08-24T12:54:00;98667.00;;;38.98;23.82
13124;BME280;6627;50.920;12.050;2023-08-24T12:56:29;98847.09;;;40.27;23.39
13124;BME280;6627;50.920;12.050;2023-08-24T12:58:57;98667.75;;;39.65;22.90
13124;BME280;6627;50.920;12.050;2023-08-24T13:01:24;98735.75;;;40.12;22.78
13124;BME280;6627;50.920;12.050;2023-08-24T13:03:53;98619.59;;;39.45;23.17
13124;BME280;6627;50.920;12.050;2023-08-24T13:06:23;98550.75;;;38.86;22.71
13124;BME280;6627;50.920;12.050;2023-08-24T13:08:53;98612.81;;;39.10;23.81
13124;BME280;6627;50.920;12.050;2023-08-24T13:11:23;98505.84;;;38.33;23.58